Weather at Eleftherios Venizelos International Airport

Public forecast

Using degrees Celsius for public forecast. Weather courtesy of forecast.io.

Current aviation weather report (METAR) for Eleftherios Venizelos International Airport

Retrieved 2021/01/23 13:20 UTC (29 minutes ago):

LGAV 231320Z 20018KT 9999 FEW020 SCT030 BKN070 15/06 Q1015 NOSIG

Aviation forecast (TAF) for Eleftherios Venizelos International Airport

Retrieved 2021/01/23 12:12 UTC (2 hours ago):

TAF TAF LGAV 231100Z 2312/2412 20017KT 9999 SCT020 BKN070 TEMPO 2312/2403 20020G30KT PROB30 TEMPO 2321/2403 5000 RA FEW018TCU BKN025 BKN070 PROB30 TEMPO 2321/2403 4000 TSRA SCT012 FEW018CB BKN025 BKN070 BECMG 2403/2405 26010KT FEW025 SCT070